Airfield :
LOGIN :

Register | Disclaimer

   EN    FR    IT 

 










Legend :    VFR   Marginal VFR   IFR   Intensive IFR   Very Intensive IFR
Visi :
Ceiling :
>= 8 km
>= 3000ft
5 to 8 km
1000 to 3000 ft
1500m to 5 km
500 to 1000 ft
800 to 1500m
200 to 500 ft
< 800m
< 200 ft
Symbols :   Thunderstorms  Fog  Heavy snow  Heavy precipitations  Wind > 20 kt
SIGMETs :     Misc.  Thunderstorms  Icing  Turbulence  Mountain Waves  Volcanic Ashes






- Airport Elevation : 33 ft
- IATA code : MHZ


EGUN - RAF Mildenhall

CURRENT METAR :
  • 250356Z AUTO 24004KT 9999 BKN090 BKN110 15/15 A2998 RMK AO2 RAE0256RAB0256E0256 SLP155 P0000 T01540154

EXPIRED METARs :
  • 250257Z AUTO 24005KT 9999 SCT095 16/16 A2999 RMK AO2 RAE56RAB56E56 SLP159
  • 250243Z AUTO 24007KT 9999 -RA SCT100 16/16 A2999 RMK AO2 RAB43 SLP159
  • 250156Z AUTO 24007KT 9999 BKN100 BKN150 16/16 A3000 RMK AO2 SLP162 T01640164

TAF TAF EGUN
Valid from the 25 at 04:00 until the 26 at 10:00 UTC


250400Z 2504/2610 24012KT 9999 FEW040 OVC080 QNH2996INS
BECMG 2506/2507 25012KT 8000 -SHRA BKN010 OVC030 QNH2994INS
TEMPO 2507/2512 BKN007
BECMG 2511/2512 24009KT 8000 -SHRA BKN020 QNH2992INS
TEMPO 2512/2518 24010G20KT 8000 -TSRAGS BKN010CB
BECMG 2517/2518 34009KT 9999 NSW BKN030CB QNH2993INS
BECMG 2522/2523 02009KT 9999 BKN007 OVC020 QNH2997INS
BECMG 2609/2610 03009KT 9999 SCT007 QNH3007INS TX20/2512Z TN13/2603Z



MET'MAP, your aeronautical weather chart ! - Copyright ORBIFLY December 2007 - Disclaimer

ORBIFLY MET'MAP TEAM :

Programming & Development : Alexandra Zaïnal
Concept & original design : Baudouin d'Aumeries
Assistance for programming : Marc-Olivier Méhu
Technical & hardware support : Manuel Goepfert

Contact : metmap@orbifly.com




SOURCES & CREDITS :

   NOAA